Terminal Aerodrome Forecast
Issued by NWS

Home | Current Version | Previous Version | Text Only | Print | Product List | Glossary On
Versions: 1 2 3 4 5 6 7 8 9 10 11 12 13 14 15 16
000
FTUS42 KMLB 231740
TAFLEE
TAF
KLEE 231740Z 2318/2418 02011G16KT P6SM FEW025 SCT050 BKN100
     FM240000 36006KT P6SM SCT030 SCT200
     FM240800 35006KT P6SM BKN008
      TEMPO 2409/2412 4SM BR BKN006
     FM241300 02006KT P6SM SCT008 SCT025=

USA.gov is the U.S. government's official web portal to all federal, state and local government web resources and services.